createdAt,value
2023-01-17T00:00:06.765Z,1.56
2023-01-17T00:02:33.331Z,1.57
2023-01-17T00:04:59.871Z,1.18
2023-01-17T00:07:27.795Z,1.60
2023-01-17T00:09:54.315Z,1.19
2023-01-17T00:12:21.601Z,1.60
2023-01-17T00:14:48.555Z,1.56
2023-01-17T00:17:15.438Z,1.43
2023-01-17T00:19:41.887Z,1.20
2023-01-17T00:22:28.934Z,1.79
2023-01-17T00:24:55.563Z,1.73
2023-01-17T00:27:21.999Z,1.68
2023-01-17T00:29:48.533Z,1.20
2023-01-17T00:32:15.030Z,1.62
2023-01-17T00:34:41.477Z,1.50
2023-01-17T00:37:08.126Z,1.47
2023-01-17T00:39:34.572Z,1.39
2023-01-17T00:42:01.074Z,1.45
2023-01-17T00:44:27.490Z,1.59
2023-01-17T00:46:54.006Z,1.15
2023-01-17T00:49:20.560Z,1.58
2023-01-17T00:51:47.197Z,1.55
2023-01-17T00:54:14.420Z,1.52
2023-01-17T00:56:40.947Z,1.45
2023-01-17T00:59:07.479Z,1.62
2023-01-17T01:01:34.946Z,1.66
2023-01-17T01:04:01.551Z,1.64
2023-01-17T01:06:28.106Z,1.60
2023-01-17T01:08:54.573Z,1.79
2023-01-17T01:11:21.533Z,1.71
2023-01-17T01:13:47.993Z,1.64
2023-01-17T01:16:15.292Z,1.13
2023-01-17T01:18:41.820Z,1.62
2023-01-17T01:21:08.338Z,1.10
2023-01-17T01:23:35.293Z,1.14
2023-01-17T01:26:03.862Z,1.51
2023-01-17T01:28:30.428Z,1.63
2023-01-17T01:31:02.491Z,1.49
2023-01-17T01:33:29.024Z,1.47
2023-01-17T01:35:55.813Z,1.42
2023-01-17T01:38:24.759Z,1.37
2023-01-17T01:40:53.852Z,1.28
2023-01-17T01:43:39.546Z,1.18
2023-01-17T01:46:08.011Z,0.93
2023-01-17T01:48:54.986Z,1.17
2023-01-17T01:51:45.618Z,1.19
2023-01-17T01:54:19.318Z,1.27
2023-01-17T01:56:47.079Z,1.10
2023-01-17T01:59:17.542Z,1.14
2023-01-17T02:01:44.122Z,1.18
2023-01-17T02:04:11.222Z,1.16
2023-01-17T02:06:43.767Z,0.75
2023-01-17T02:09:12.683Z,1.00
2023-01-17T02:11:40.277Z,0.67
2023-01-17T02:14:07.182Z,0.90
2023-01-17T02:16:38.045Z,0.84
2023-01-17T02:19:07.399Z,0.82
2023-01-17T02:21:47.835Z,0.75
2023-01-17T02:24:33.513Z,0.83
2023-01-17T02:27:29.447Z,0.87
2023-01-17T02:30:19.001Z,1.00
2023-01-17T02:32:48.748Z,1.00
2023-01-17T02:35:42.186Z,1.13
2023-01-17T02:38:29.393Z,1.22
2023-01-17T02:41:01.391Z,0.76
2023-01-17T02:43:28.183Z,0.63
2023-01-17T02:45:54.783Z,0.67
2023-01-17T02:48:25.673Z,0.64
2023-01-17T02:51:16.783Z,0.63
2023-01-17T02:53:56.640Z,0.59
2023-01-17T02:56:31.694Z,0.51
2023-01-17T02:59:23.855Z,0.46
2023-01-17T03:02:08.967Z,0.52
2023-01-17T03:04:44.845Z,0.42
2023-01-17T03:07:25.888Z,0.44
2023-01-17T03:09:57.391Z,0.31
2023-01-17T03:12:27.918Z,0.42
2023-01-17T03:14:54.428Z,0.44
2023-01-17T03:17:21.603Z,0.13
2023-01-17T03:19:48.062Z,0.46
2023-01-17T03:22:14.484Z,0.42
2023-01-17T03:24:40.951Z,0.53
2023-01-17T03:27:07.432Z,0.45
2023-01-17T03:29:33.966Z,0.57
2023-01-17T03:32:00.562Z,0.54
2023-01-17T03:34:27.138Z,0.62
2023-01-17T03:36:53.572Z,0.45
2023-01-17T03:39:20.040Z,0.58
2023-01-17T03:41:46.442Z,0.60
2023-01-17T03:44:12.854Z,0.15
2023-01-17T03:46:39.382Z,0.62
2023-01-17T03:49:05.883Z,0.56
2023-01-17T03:51:32.423Z,0.21
2023-01-17T03:53:58.869Z,0.27
2023-01-17T03:56:25.294Z,0.43
2023-01-17T03:58:51.730Z,0.23
2023-01-17T04:01:18.293Z,0.11
2023-01-17T04:03:44.905Z,0.48
2023-01-17T04:06:11.455Z,0.24
2023-01-17T04:08:38.001Z,0.15
2023-01-17T04:11:04.631Z,0.27
2023-01-17T04:13:31.176Z,0.22
2023-01-17T04:15:58.011Z,0.18
2023-01-17T04:18:24.826Z,0.07
2023-01-17T04:20:51.690Z,0.15
2023-01-17T04:23:18.592Z,0.14
2023-01-17T04:25:45.174Z,0.15
2023-01-17T04:28:11.943Z,0.11
2023-01-17T04:30:38.454Z,0.14
2023-01-17T04:33:05.256Z,0.09
2023-01-17T04:35:32.463Z,-0.25
2023-01-17T04:37:59.458Z,0.05
2023-01-17T04:40:26.018Z,0.02
2023-01-17T04:42:52.602Z,0.02
2023-01-17T04:45:19.157Z,0.03
2023-01-17T04:47:45.622Z,-0.06
2023-01-17T04:50:12.337Z,-0.01
2023-01-17T04:52:38.821Z,-0.01
2023-01-17T04:55:06.141Z,-0.32
2023-01-17T04:57:32.830Z,-0.33
2023-01-17T04:59:59.429Z,0.00
2023-01-17T05:02:26.045Z,-0.26
2023-01-17T05:04:52.629Z,0.03
2023-01-17T05:07:19.159Z,-0.24
2023-01-17T05:09:45.721Z,0.10
2023-01-17T05:12:12.112Z,0.02
2023-01-17T05:14:38.703Z,-0.02
2023-01-17T05:17:05.211Z,-0.04
2023-01-17T05:19:31.788Z,-0.48
2023-01-17T05:21:58.221Z,-0.19
2023-01-17T05:24:24.655Z,-0.26
2023-01-17T05:26:51.173Z,-0.25
2023-01-17T05:29:17.665Z,-0.38
2023-01-17T05:31:44.169Z,-0.34
2023-01-17T05:34:11.387Z,-0.38
2023-01-17T05:36:37.964Z,-0.42
2023-01-17T05:39:04.544Z,-0.73
2023-01-17T05:41:30.992Z,-0.72
2023-01-17T05:43:57.465Z,-0.49
2023-01-17T05:46:23.967Z,-0.49
2023-01-17T05:48:50.452Z,-0.82
2023-01-17T05:51:17.086Z,-0.57
2023-01-17T05:53:43.593Z,-0.54
2023-01-17T05:56:10.053Z,-0.56
2023-01-17T05:58:36.560Z,-0.56
2023-01-17T06:01:03.046Z,-0.56
2023-01-17T06:03:29.784Z,-0.79
2023-01-17T06:05:56.248Z,-0.77
2023-01-17T06:08:22.836Z,-0.64
2023-01-17T06:10:49.729Z,-0.94
2023-01-17T06:13:16.164Z,-0.95
2023-01-17T06:15:42.774Z,-0.69
2023-01-17T06:18:11.820Z,-0.82
2023-01-17T06:20:38.626Z,-1.17
2023-01-17T06:23:07.048Z,-0.91
2023-01-17T06:25:42.186Z,-0.91
2023-01-17T06:28:08.696Z,-1.00
2023-01-17T06:30:35.526Z,-0.91
2023-01-17T06:33:02.560Z,-1.06
2023-01-17T06:35:29.272Z,-0.97
2023-01-17T06:37:56.089Z,-1.28
2023-01-17T06:40:22.539Z,-1.04
2023-01-17T06:42:49.000Z,-0.96
2023-01-17T06:45:15.602Z,-0.97
2023-01-17T06:47:42.689Z,-0.99
2023-01-17T06:50:12.022Z,-1.04
2023-01-17T06:52:38.474Z,-1.38
2023-01-17T06:55:05.416Z,-1.04
2023-01-17T06:57:31.908Z,-1.37
2023-01-17T06:59:58.373Z,-1.04
2023-01-17T07:02:24.933Z,-1.16
2023-01-17T07:04:52.022Z,-1.16
2023-01-17T07:07:18.567Z,-1.08
2023-01-17T07:09:45.018Z,-1.11
2023-01-17T07:12:11.478Z,-1.25
2023-01-17T07:14:38.008Z,-1.14
2023-01-17T07:17:04.719Z,-1.49
2023-01-17T07:19:31.178Z,-1.16
2023-01-17T07:21:57.743Z,-1.21
2023-01-17T07:24:24.469Z,-1.14
2023-01-17T07:26:51.814Z,-1.10
2023-01-17T07:29:18.846Z,-1.17
2023-01-17T07:31:45.467Z,-1.14
2023-01-17T07:34:12.107Z,-1.28
2023-01-17T07:36:38.544Z,-1.15
2023-01-17T07:39:06.368Z,-1.04
2023-01-17T07:41:33.858Z,-1.08
2023-01-17T07:44:00.542Z,-1.18
2023-01-17T07:46:27.237Z,-1.20
2023-01-17T07:48:53.704Z,-1.53
2023-01-17T07:51:20.188Z,-1.18
2023-01-17T07:53:46.741Z,-1.20
2023-01-17T07:56:13.245Z,-1.27
2023-01-17T07:58:39.723Z,-1.24
2023-01-17T08:01:11.799Z,-1.17
2023-01-17T08:03:38.731Z,-1.36
2023-01-17T08:06:23.761Z,-1.53
2023-01-17T08:08:50.348Z,-1.22
2023-01-17T08:11:19.379Z,-1.04
2023-01-17T08:13:45.865Z,-1.04
2023-01-17T08:16:13.578Z,-1.11
2023-01-17T08:18:40.268Z,-1.38
2023-01-17T08:21:16.943Z,-1.06
2023-01-17T08:23:47.806Z,-0.98
2023-01-17T08:26:15.124Z,-1.08
2023-01-17T08:28:41.626Z,-0.82
2023-01-17T08:31:09.310Z,-1.13
2023-01-17T08:33:35.733Z,-0.86
2023-01-17T08:36:02.307Z,-0.82
2023-01-17T08:38:31.541Z,-0.76
2023-01-17T08:41:00.993Z,-0.73
2023-01-17T08:43:27.416Z,-0.72
2023-01-17T08:45:53.972Z,-0.71
2023-01-17T08:48:20.499Z,-0.65
2023-01-17T08:50:47.079Z,-0.61
2023-01-17T08:53:13.556Z,-0.79
2023-01-17T08:55:39.996Z,-0.44
2023-01-17T08:58:07.299Z,-0.24
2023-01-17T09:00:34.577Z,-0.56
2023-01-17T09:03:01.097Z,-0.23
2023-01-17T09:05:28.145Z,-0.25
2023-01-17T09:07:55.531Z,-0.33
2023-01-17T09:10:22.576Z,-0.28
2023-01-17T09:15:33.526Z,-0.31
2023-01-17T09:18:00.006Z,-0.13
2023-01-17T09:20:26.617Z,-0.30
2023-01-17T09:23:11.824Z,-0.31
2023-01-17T09:25:38.338Z,-0.07
2023-01-17T09:28:05.043Z,-0.01
2023-01-17T09:30:31.930Z,0.01
2023-01-17T09:32:58.431Z,0.04
2023-01-17T09:35:25.044Z,0.05
2023-01-17T09:37:51.858Z,0.11
2023-01-17T09:40:22.753Z,0.43
2023-01-17T09:42:54.056Z,0.21
2023-01-17T09:45:21.174Z,0.72
2023-01-17T09:47:51.041Z,0.59
2023-01-17T09:50:41.793Z,0.58
2023-01-17T09:53:17.696Z,0.63
2023-01-17T09:55:49.404Z,0.48
2023-01-17T09:58:20.925Z,0.52
2023-01-17T10:01:33.484Z,0.91
2023-01-17T10:04:20.498Z,1.39
2023-01-17T10:07:12.096Z,1.65
2023-01-17T10:09:59.496Z,1.43
2023-01-17T10:12:37.089Z,1.96
2023-01-17T10:15:13.509Z,1.94
2023-01-17T10:17:46.736Z,1.78
2023-01-17T10:20:32.620Z,3.14
2023-01-17T10:23:17.524Z,3.30
2023-01-17T10:25:50.433Z,2.41
2023-01-17T10:28:35.129Z,3.06
2023-01-17T10:31:24.910Z,4.08
2023-01-17T10:33:56.457Z,4.15
2023-01-17T10:36:26.138Z,3.19
2023-01-17T10:38:59.425Z,3.25
2023-01-17T10:41:32.056Z,2.51
2023-01-17T10:44:23.378Z,2.49
2023-01-17T10:46:55.371Z,2.34
2023-01-17T10:49:24.942Z,1.99
2023-01-17T10:52:00.587Z,2.01
2023-01-17T10:55:00.832Z,2.40
2023-01-17T10:57:27.931Z,2.56
2023-01-17T11:00:00.260Z,2.57
2023-01-17T11:02:37.341Z,2.32
2023-01-17T11:05:18.341Z,2.54
2023-01-17T11:08:07.093Z,2.06
2023-01-17T11:10:48.731Z,1.95
2023-01-17T11:13:25.940Z,1.90
2023-01-17T11:16:17.964Z,1.74
2023-01-17T11:18:45.115Z,2.03
2023-01-17T11:21:21.893Z,2.35
2023-01-17T11:23:52.248Z,2.49
2023-01-17T11:26:27.911Z,2.29
2023-01-17T11:29:36.932Z,2.18
2023-01-17T11:32:22.234Z,3.52
2023-01-17T11:35:15.116Z,3.36
2023-01-17T11:38:13.616Z,2.68
2023-01-17T11:40:40.118Z,2.87
2023-01-17T11:43:25.228Z,2.79
2023-01-17T11:46:16.376Z,3.58
2023-01-17T11:48:49.525Z,3.25
2023-01-17T11:51:30.200Z,3.08
2023-01-17T11:54:26.450Z,3.31
2023-01-17T11:57:02.335Z,2.93
2023-01-17T11:59:43.196Z,2.89
2023-01-17T12:02:31.572Z,3.39
2023-01-17T12:05:25.673Z,3.50
2023-01-17T12:08:20.071Z,4.96
2023-01-17T12:10:58.131Z,4.46
2023-01-17T12:14:13.023Z,5.12
2023-01-17T12:17:08.361Z,6.68
2023-01-17T12:20:09.881Z,5.64
2023-01-17T12:22:54.987Z,6.18
2023-01-17T12:25:24.148Z,5.55
2023-01-17T12:28:13.539Z,5.74
2023-01-17T12:30:43.009Z,5.05
2023-01-17T12:33:28.259Z,5.03
2023-01-17T12:35:54.656Z,5.68
2023-01-17T12:38:38.580Z,5.66
2023-01-17T12:41:30.936Z,5.27
2023-01-17T12:44:00.266Z,5.13
2023-01-17T12:46:50.162Z,5.64
2023-01-17T12:49:28.543Z,5.42
2023-01-17T12:52:06.712Z,5.44
2023-01-17T12:54:39.026Z,5.16
2023-01-17T12:57:16.585Z,4.94
2023-01-17T12:59:57.978Z,4.28
2023-01-17T13:03:03.082Z,4.71
2023-01-17T13:05:49.745Z,4.71
2023-01-17T13:08:28.209Z,6.44
2023-01-17T13:11:30.645Z,6.19
2023-01-17T13:13:57.333Z,5.63
2023-01-17T13:16:33.022Z,5.57
2023-01-17T13:19:06.225Z,5.91
2023-01-17T13:21:34.343Z,5.15
2023-01-17T13:24:00.804Z,5.51
2023-01-17T13:26:29.907Z,7.41
2023-01-17T13:29:12.144Z,6.95
2023-01-17T13:31:47.952Z,6.26
2023-01-17T13:34:40.039Z,5.10
2023-01-17T13:37:30.102Z,4.26
2023-01-17T13:40:30.353Z,4.39
2023-01-17T13:43:00.946Z,4.47
2023-01-17T13:45:31.003Z,5.11
2023-01-17T13:48:12.544Z,6.76
2023-01-17T13:50:41.841Z,5.99
2023-01-17T13:53:36.053Z,6.01
2023-01-17T13:56:19.432Z,6.13
2023-01-17T13:58:45.845Z,6.12
2023-01-17T14:01:12.428Z,4.64
2023-01-17T14:03:51.127Z,4.49
2023-01-17T14:06:35.904Z,4.32
2023-01-17T14:09:08.588Z,4.56
2023-01-17T14:11:59.304Z,4.63
2023-01-17T14:14:34.729Z,4.80
2023-01-17T14:17:16.600Z,4.11
2023-01-17T14:19:46.476Z,4.23
2023-01-17T14:22:22.661Z,3.74
2023-01-17T14:25:08.066Z,3.76
2023-01-17T14:27:35.153Z,4.56
2023-01-17T14:30:16.176Z,4.73
2023-01-17T14:33:02.758Z,4.96
2023-01-17T14:35:32.469Z,5.59
2023-01-17T14:37:59.977Z,5.60
2023-01-17T14:40:28.828Z,5.98
2023-01-17T14:43:13.862Z,5.12
2023-01-17T14:45:42.344Z,4.90
2023-01-17T14:48:22.490Z,4.35
2023-01-17T14:50:50.882Z,4.78
2023-01-17T14:53:24.815Z,5.07
2023-01-17T14:55:53.517Z,5.10
2023-01-17T14:58:31.083Z,5.35
2023-01-17T15:01:01.477Z,5.72
2023-01-17T15:03:30.218Z,5.06
2023-01-17T15:06:04.888Z,5.33
2023-01-17T15:08:35.520Z,4.89
2023-01-17T15:11:10.119Z,4.37
2023-01-17T15:13:45.055Z,3.51
2023-01-17T15:16:19.794Z,3.00
2023-01-17T15:18:46.583Z,3.31
2023-01-17T15:21:17.204Z,3.01
2023-01-17T15:23:55.233Z,2.81
2023-01-17T15:26:25.175Z,2.66
2023-01-17T15:28:53.301Z,2.59
2023-01-17T15:31:36.686Z,2.24
2023-01-17T15:34:07.083Z,2.52
2023-01-17T15:36:34.116Z,2.53
2023-01-17T15:39:04.963Z,2.34
2023-01-17T15:41:34.628Z,1.16
2023-01-17T15:44:01.532Z,2.00
2023-01-17T15:46:42.728Z,2.08
2023-01-17T15:49:20.708Z,1.69
2023-01-17T15:52:14.864Z,1.86
2023-01-17T15:54:42.902Z,1.75
2023-01-17T15:57:24.624Z,1.75
2023-01-17T16:00:04.856Z,1.76
2023-01-17T16:02:36.130Z,1.64
2023-01-17T16:05:24.646Z,1.22
2023-01-17T16:07:56.681Z,1.20
2023-01-17T16:10:29.125Z,1.33
2023-01-17T16:12:55.757Z,1.37
2023-01-17T16:15:23.008Z,1.34
2023-01-17T16:17:52.604Z,1.19
2023-01-17T16:20:23.671Z,1.32
2023-01-17T16:22:50.865Z,1.36
2023-01-17T16:25:21.254Z,1.32
2023-01-17T16:27:48.325Z,0.56
2023-01-17T16:30:18.496Z,0.88
2023-01-17T16:32:46.714Z,1.05
2023-01-17T16:35:21.120Z,0.94
2023-01-17T16:37:51.813Z,0.67
2023-01-17T16:40:20.168Z,0.80
2023-01-17T16:42:46.951Z,0.55
2023-01-17T16:45:14.479Z,0.48
2023-01-17T16:47:46.292Z,0.45
2023-01-17T16:50:15.821Z,0.65
2023-01-17T16:52:42.315Z,0.54
2023-01-17T16:55:12.982Z,0.40
2023-01-17T16:57:40.073Z,0.39
2023-01-17T17:00:08.675Z,0.34
2023-01-17T17:02:35.241Z,0.48
2023-01-17T17:05:01.803Z,0.31
2023-01-17T17:07:28.334Z,0.32
2023-01-17T17:09:54.801Z,0.14
2023-01-17T17:12:21.323Z,0.09
2023-01-17T17:14:47.876Z,0.07
2023-01-17T17:17:14.738Z,0.12
2023-01-17T17:19:41.377Z,0.22
2023-01-17T17:22:07.898Z,0.25
2023-01-17T17:24:34.396Z,0.32
2023-01-17T17:27:00.918Z,0.26
2023-01-17T17:29:27.428Z,-0.27
2023-01-17T17:31:53.869Z,-0.19
2023-01-17T17:34:20.378Z,-0.13
2023-01-17T17:36:46.996Z,-0.23
2023-01-17T17:39:14.717Z,-0.24
2023-01-17T17:41:43.350Z,-0.22
2023-01-17T17:44:10.211Z,-0.16
2023-01-17T17:46:36.836Z,-0.17
2023-01-17T17:49:03.672Z,0.02
2023-01-17T17:51:35.538Z,-0.34
2023-01-17T17:54:05.757Z,-0.31
2023-01-17T17:56:33.585Z,-0.65
2023-01-17T17:59:01.593Z,-0.48
2023-01-17T18:01:29.421Z,-0.82
2023-01-17T18:04:00.508Z,-0.83
2023-01-17T18:06:27.003Z,-0.48
2023-01-17T18:08:53.871Z,-0.84
2023-01-17T18:11:23.181Z,-0.56
2023-01-17T18:13:51.781Z,-0.50
2023-01-17T18:16:22.893Z,-0.64
2023-01-17T18:18:52.315Z,-0.79
2023-01-17T18:21:21.803Z,-0.73
2023-01-17T18:23:48.272Z,-0.88
2023-01-17T18:26:26.989Z,-1.01
2023-01-17T18:28:55.294Z,-1.06
2023-01-17T18:31:23.162Z,-0.91
2023-01-17T18:33:49.671Z,-1.01
2023-01-17T18:36:16.111Z,-0.71
2023-01-17T18:38:45.245Z,-1.13
2023-01-17T18:41:22.794Z,-0.95
2023-01-17T18:43:49.441Z,-0.74
2023-01-17T18:46:17.334Z,-0.93
2023-01-17T18:48:44.135Z,-1.30
2023-01-17T18:51:14.032Z,-0.76
2023-01-17T18:53:41.979Z,-0.68
2023-01-17T18:56:10.867Z,-1.05
2023-01-17T18:58:42.626Z,-0.98
2023-01-17T19:01:11.987Z,-1.18
2023-01-17T19:03:40.354Z,-1.18
2023-01-17T19:06:09.718Z,-1.43
2023-01-17T19:08:37.012Z,-1.29
2023-01-17T19:11:03.862Z,-1.18
2023-01-17T19:13:34.766Z,-0.97
2023-01-17T19:16:02.987Z,-1.07
2023-01-17T19:18:30.263Z,-1.12
2023-01-17T19:21:05.423Z,-1.00
2023-01-17T19:23:31.949Z,-1.04
2023-01-17T19:25:58.400Z,-1.05
2023-01-17T19:28:24.961Z,-1.02
2023-01-17T19:31:01.922Z,-1.17
2023-01-17T19:33:28.388Z,-1.89
2023-01-17T19:35:58.953Z,-1.38
2023-01-17T19:38:25.416Z,-1.70
2023-01-17T19:40:51.958Z,-1.28
2023-01-17T19:43:18.495Z,-1.19
2023-01-17T19:45:54.621Z,-1.37
2023-01-17T19:48:21.176Z,-1.28
2023-01-17T19:50:47.577Z,-1.08
2023-01-17T19:53:14.140Z,-1.48
2023-01-17T19:55:40.685Z,-1.20
2023-01-17T19:58:07.144Z,-1.40
2023-01-17T20:00:33.739Z,-1.71
2023-01-17T20:03:00.256Z,-1.65
2023-01-17T20:05:26.901Z,-1.69
2023-01-17T20:07:53.446Z,-1.56
2023-01-17T20:10:19.969Z,-1.92
2023-01-17T20:12:46.587Z,-1.58
2023-01-17T20:15:13.137Z,-1.60
2023-01-17T20:17:39.656Z,-1.63
2023-01-17T20:20:07.578Z,-1.63
2023-01-17T20:22:34.095Z,-1.61
2023-01-17T20:25:00.604Z,-1.54
2023-01-17T20:27:28.013Z,-1.69
2023-01-17T20:29:54.500Z,-1.50
2023-01-17T20:32:21.057Z,-1.74
2023-01-17T20:34:47.489Z,-1.55
2023-01-17T20:37:14.000Z,-1.55
2023-01-17T20:39:40.517Z,-1.71
2023-01-17T20:42:07.066Z,-1.64
2023-01-17T20:44:33.596Z,-1.70
2023-01-17T20:47:00.546Z,-1.67
2023-01-17T20:49:27.089Z,-1.68
2023-01-17T20:51:54.461Z,-1.63
2023-01-17T20:54:21.438Z,-1.37
2023-01-17T20:56:48.051Z,-1.20
2023-01-17T20:59:17.784Z,-1.15
2023-01-17T21:01:45.391Z,-1.37
2023-01-17T21:04:12.406Z,-1.39
2023-01-17T21:06:40.238Z,-1.51
2023-01-17T21:09:08.268Z,-1.72
2023-01-17T21:11:34.904Z,-1.77
2023-01-17T21:14:01.620Z,-1.77
2023-01-17T21:16:28.780Z,-1.57
2023-01-17T21:18:55.325Z,-1.48
2023-01-17T21:21:24.630Z,-1.55
2023-01-17T21:23:53.525Z,-1.76
2023-01-17T21:26:21.521Z,-1.45
2023-01-17T21:28:50.008Z,-1.44
2023-01-17T21:31:28.492Z,-1.60
2023-01-17T21:33:56.510Z,-1.56
2023-01-17T21:36:25.611Z,-1.99
2023-01-17T21:38:54.595Z,-1.86
2023-01-17T21:41:29.602Z,-2.28
2023-01-17T21:43:58.686Z,-2.05
2023-01-17T21:46:26.387Z,-1.98
2023-01-17T21:48:53.179Z,-1.92
2023-01-17T21:51:20.049Z,-1.88
2023-01-17T21:53:46.574Z,-1.96
2023-01-17T21:56:14.447Z,-1.66
2023-01-17T21:58:40.980Z,-1.69
2023-01-17T22:01:08.035Z,-1.68
2023-01-17T22:03:35.922Z,-1.97
2023-01-17T22:06:02.760Z,-1.74
2023-01-17T22:08:32.307Z,-2.17
2023-01-17T22:11:06.376Z,-2.10
2023-01-17T22:13:33.986Z,-1.74
2023-01-17T22:16:03.366Z,-1.95
2023-01-17T22:18:31.059Z,-1.67
2023-01-17T22:20:57.693Z,-1.84
2023-01-17T22:23:24.151Z,-1.72
2023-01-17T22:25:50.668Z,-1.73
2023-01-17T22:28:17.193Z,-1.88
2023-01-17T22:30:43.725Z,-1.92
2023-01-17T22:33:10.274Z,-2.14
2023-01-17T22:35:36.737Z,-1.93
2023-01-17T22:38:03.268Z,-2.15
2023-01-17T22:40:29.754Z,-2.42
2023-01-17T22:42:56.538Z,-2.03
2023-01-17T22:45:23.143Z,-1.96
2023-01-17T22:47:49.649Z,-2.02
2023-01-17T22:50:16.461Z,-2.08
2023-01-17T22:52:43.031Z,-2.22
2023-01-17T22:55:09.711Z,-2.16
2023-01-17T22:57:36.233Z,-2.16
2023-01-17T23:00:02.972Z,-2.14
2023-01-17T23:02:29.443Z,-2.22
2023-01-17T23:04:55.953Z,-2.23
2023-01-17T23:07:22.492Z,-2.22
2023-01-17T23:09:48.983Z,-2.52
2023-01-17T23:12:15.411Z,-2.34
2023-01-17T23:14:41.973Z,-2.58
2023-01-17T23:17:08.540Z,-2.33
2023-01-17T23:19:40.887Z,-2.34
2023-01-17T23:22:10.785Z,-2.32
2023-01-17T23:24:39.175Z,-2.43
2023-01-17T23:27:05.921Z,-2.52
2023-01-17T23:29:32.446Z,-2.59
2023-01-17T23:31:58.945Z,-2.43
2023-01-17T23:34:25.497Z,-2.78
2023-01-17T23:36:51.983Z,-2.51
2023-01-17T23:39:18.497Z,-2.81
2023-01-17T23:41:45.006Z,-2.43
2023-01-17T23:44:11.612Z,-2.44
2023-01-17T23:46:38.212Z,-2.38
2023-01-17T23:49:04.717Z,-2.58
2023-01-17T23:51:31.229Z,-2.38
2023-01-17T23:53:57.699Z,-2.66
2023-01-17T23:56:24.490Z,-2.49
2023-01-17T23:58:51.071Z,-2.44
